Weather History for Frederick, MD

Change the Weather History Date:

Thursday, March 8, 2012

  Actual Average (KHGR) Record (KHGR)
Temperature  
Mean Temperature 60 °F -  
Max Temperature 69 °F 44 °F 76 °F (2009)
Min Temperature 50 °F 27 °F 8 °F (2007)
Degree Days  
Heating Degree Days 6    
Growing Degree Days 10 (Base 50)    
Moisture  
Dew Point 48 °F    
Average Humidity 66    
Maximum Humidity 88    
Minimum Humidity 49    
Precipitation  
Precipitation 0.00 in - - ()
Sea Level Pressure  
Sea Level Pressure 30.16 in    
Wind  
Wind Speed 14 mph (SSW)    
Max Wind Speed 26 mph    
Max Gust Speed 37 mph    
Visibility 10 miles    
Events      
Averages and records for this station are not official NWS values.
T = Trace of Precipitation, MM = Missing Value Source: NWS Daily Summary

Daily Weather History Graph

Daily Weather History Graph

Search for Another Location

Airport:

Trip Planner

Search our weather history database for the weather conditions in past years. The results will help you decide how hot, cold, wet, or windy it might be!

Date:

Astronomy

Mar. 08, 2012 Rise Set
Actual Time 6:31 AM EST 6:09 PM EST
Civil Twilight 6:04 AM EST 6:36 PM EST
Nautical Twilight 5:33 AM EST 7:07 PM EST
Astronomical Twilight 5:02 AM EST 7:38 PM EST
Moon 6:54 PM EST (3/8) 6:14 AM EST (3/8)
Length of Visible Light 12h 32m
Length of Day
11h 38m
Full, 100% of the Moon is Illuminated
Mar 8
Full
Mar 14
Last Quarter
Mar 22
New
Mar 30
First Quarter
Apr 6
Full

Hourly Weather History & Observations

Time (EST) Temp. Dew Point Humidity Pressure Visibility Wind Dir Wind Speed Gust Speed Precip Events Conditions
12:05 AM 53.6 °F 42.8 °F 67% 30.33 in 10.0 mi South 9.2 mph - N/A   Clear
12:25 AM 53.6 °F 42.8 °F 67% 30.33 in 10.0 mi South 10.4 mph - N/A   Clear
12:45 AM 53.6 °F 42.8 °F 67% 30.33 in 10.0 mi South 10.4 mph - N/A   Clear
1:10 AM 53.6 °F 42.8 °F 67% 30.34 in 10.0 mi South 10.4 mph 18.4 mph N/A   Clear
1:30 AM 53.6 °F 44.6 °F 72% 30.34 in 10.0 mi South 13.8 mph 17.3 mph N/A   Clear
1:50 AM 53.6 °F 44.6 °F 72% 30.33 in 10.0 mi South 16.1 mph 20.7 mph N/A   Clear
2:15 AM 53.6 °F 44.6 °F 72% 30.33 in 10.0 mi South 12.7 mph - N/A   Clear
2:35 AM 53.6 °F 44.6 °F 72% 30.32 in 10.0 mi South 12.7 mph 19.6 mph N/A   Clear
2:55 AM 53.6 °F 44.6 °F 72% 30.31 in 10.0 mi South 10.4 mph 17.3 mph N/A   Clear
3:15 AM 51.8 °F 44.6 °F 76% 30.31 in 10.0 mi South 8.1 mph - N/A   Clear
3:40 AM 50.0 °F 44.6 °F 82% 30.30 in 10.0 mi South 8.1 mph - N/A   Clear
4:00 AM 50.0 °F 44.6 °F 82% 30.30 in 10.0 mi South 5.8 mph - N/A   Clear
4:20 AM 50.0 °F 44.6 °F 82% 30.30 in 10.0 mi South 8.1 mph - N/A   Clear
4:40 AM 50.0 °F 44.6 °F 82% 30.30 in 10.0 mi South 10.4 mph - N/A   Clear
5:05 AM 50.0 °F 46.4 °F 87% 30.30 in 10.0 mi SSW 11.5 mph - N/A   Clear
5:25 AM 50.0 °F 46.4 °F 87% 30.29 in 10.0 mi SSW 11.5 mph - N/A   Clear
5:45 AM 50.0 °F 46.4 °F 87% 30.29 in 10.0 mi SSW 12.7 mph - N/A   Clear
6:05 AM 51.8 °F 46.4 °F 82% 30.28 in 10.0 mi SSW 11.5 mph - N/A   Clear
6:30 AM 51.8 °F 46.4 °F 82% 30.28 in 10.0 mi SSW 11.5 mph - N/A   Clear
6:50 AM 50.0 °F 46.4 °F 87% 30.28 in 10.0 mi SSW 10.4 mph - N/A   Clear
7:10 AM 51.8 °F 46.4 °F 82% 30.28 in 10.0 mi SSW 11.5 mph - N/A   Clear
7:35 AM 51.8 °F 48.2 °F 88% 30.27 in 10.0 mi South 12.7 mph - N/A   Clear
7:55 AM 51.8 °F 48.2 °F 88% 30.27 in 10.0 mi SSW 13.8 mph 19.6 mph N/A   Clear
8:15 AM 53.6 °F 50.0 °F 88% 30.26 in 10.0 mi SSW 13.8 mph 20.7 mph N/A   Clear
8:35 AM 55.4 °F 50.0 °F 82% 30.25 in 10.0 mi SSW 12.7 mph 17.3 mph N/A   Clear
9:00 AM 57.2 °F 50.0 °F 77% 30.25 in 10.0 mi SSW 13.8 mph 20.7 mph N/A   Clear
9:20 AM 59.0 °F 50.0 °F 72% 30.24 in 10.0 mi South 16.1 mph 21.9 mph N/A   Clear
9:40 AM 59.0 °F 51.8 °F 77% 30.23 in 10.0 mi SSW 12.7 mph 18.4 mph N/A   Clear
10:00 AM 60.8 °F 51.8 °F 72% 30.22 in 10.0 mi SSW 13.8 mph - N/A   Clear
10:25 AM 62.6 °F 51.8 °F 68% 30.20 in 10.0 mi SSW 18.4 mph 21.9 mph N/A   Clear
10:45 AM 62.6 °F 51.8 °F 68% 30.18 in 10.0 mi SSW 18.4 mph 23.0 mph N/A   Clear
11:05 AM 64.4 °F 51.8 °F 64% 30.17 in 10.0 mi SSW 17.3 mph 27.6 mph N/A   Clear
11:25 AM 64.4 °F 51.8 °F 64% 30.16 in 10.0 mi SSW 18.4 mph 26.5 mph N/A   Clear
11:50 AM 66.2 °F 51.8 °F 60% 30.15 in 10.0 mi South 20.7 mph 28.8 mph N/A   Clear
12:10 PM 66.2 °F 51.8 °F 60% 30.14 in 10.0 mi SSW 23.0 mph 36.8 mph N/A   Clear
12:30 PM 68.0 °F 51.8 °F 56% 30.13 in 10.0 mi SSW 25.3 mph 32.2 mph N/A   Clear
12:50 PM 69.8 °F 51.8 °F 53% 30.13 in 10.0 mi SW 23.0 mph 27.6 mph N/A   Clear
1:15 PM 69.8 °F 51.8 °F 53% 30.12 in 10.0 mi SSW 23.0 mph 32.2 mph N/A   Clear
1:35 PM 69.8 °F 51.8 °F 53% 30.11 in 10.0 mi SSW 24.2 mph 32.2 mph N/A   Clear
1:55 PM 68.0 °F 51.8 °F 56% 30.10 in 10.0 mi SSW 26.5 mph 32.2 mph N/A   Clear
2:15 PM 68.0 °F 51.8 °F 56% 30.09 in 10.0 mi SSW 23.0 mph 32.2 mph N/A   Clear
2:40 PM 69.8 °F 51.8 °F 53% 30.07 in 10.0 mi SSW 16.1 mph 35.7 mph N/A   Clear
3:00 PM 68.0 °F 51.8 °F 56% 30.07 in 10.0 mi SSW 20.7 mph 31.1 mph N/A   Clear
3:20 PM 69.8 °F 50.0 °F 49% 30.06 in 10.0 mi SSW 21.9 mph 29.9 mph N/A   Clear
3:40 PM 69.8 °F 50.0 °F 49% 30.05 in 10.0 mi SSW 20.7 mph 32.2 mph N/A   Scattered Clouds
4:05 PM 69.8 °F 50.0 °F 49% 30.04 in 10.0 mi SSW 20.7 mph 26.5 mph N/A   Scattered Clouds
4:25 PM 68.0 °F 50.0 °F 52% 30.03 in 10.0 mi SSW 13.8 mph 21.9 mph N/A   Clear
4:45 PM 69.8 °F 50.0 °F 49% 30.03 in 10.0 mi SSW 13.8 mph 23.0 mph N/A   Scattered Clouds
5:05 PM 68.0 °F 48.2 °F 49% 30.02 in 10.0 mi SSW 19.6 mph 27.6 mph N/A   Scattered Clouds
5:30 PM 68.0 °F 50.0 °F 52% 30.01 in 10.0 mi SSW 21.9 mph 29.9 mph N/A   Scattered Clouds
5:50 PM 68.0 °F 50.0 °F 52% 30.01 in 10.0 mi SSW 17.3 mph 27.6 mph N/A   Mostly Cloudy
6:10 PM 66.2 °F 48.2 °F 52% 30.00 in 10.0 mi SSW 19.6 mph 29.9 mph N/A   Mostly Cloudy
6:35 PM 64.4 °F 46.4 °F 52% 30.00 in 10.0 mi SSW 19.6 mph 24.2 mph N/A   Mostly Cloudy
6:55 PM 64.4 °F 48.2 °F 56% 30.00 in 10.0 mi SSW 20.7 mph 28.8 mph N/A   Mostly Cloudy
7:15 PM 64.4 °F 48.2 °F 56% 29.99 in 10.0 mi SSW 17.3 mph 28.8 mph N/A   Mostly Cloudy
7:35 PM 64.4 °F 48.2 °F 56% 29.98 in 10.0 mi SSW 17.3 mph 24.2 mph N/A   Mostly Cloudy
8:00 PM 64.4 °F 48.2 °F 56% 29.98 in 10.0 mi SSW 15.0 mph - N/A   Scattered Clouds
8:20 PM 64.4 °F 48.2 °F 56% 29.98 in 10.0 mi SSW 15.0 mph 20.7 mph N/A   Clear
8:40 PM 64.4 °F 48.2 °F 56% 29.98 in 10.0 mi SSW 15.0 mph 20.7 mph N/A   Mostly Cloudy
9:00 PM 64.4 °F 48.2 °F 56% 29.97 in 10.0 mi SSW 16.1 mph - N/A   Overcast
9:25 PM 64.4 °F 48.2 °F 56% 29.96 in 10.0 mi SSW 13.8 mph - N/A   Overcast
9:45 PM 62.6 °F 48.2 °F 59% 29.95 in 10.0 mi SSW 15.0 mph 24.2 mph N/A   Mostly Cloudy
10:05 PM 62.6 °F 50.0 °F 63% 29.95 in 10.0 mi SSW 16.1 mph - N/A   Mostly Cloudy
10:25 PM 62.6 °F 50.0 °F 63% 29.95 in 10.0 mi SSW 16.1 mph 24.2 mph N/A   Overcast
10:50 PM 62.6 °F 50.0 °F 63% 29.95 in 10.0 mi SSW 18.4 mph 25.3 mph N/A   Overcast
11:10 PM 62.6 °F 50.0 °F 63% 29.95 in 10.0 mi SSW 16.1 mph 24.2 mph N/A   Overcast
11:30 PM 62.6 °F 50.0 °F 63% 29.95 in 10.0 mi SSW 12.7 mph - N/A   Overcast
11:50 PM 59.0 °F 51.8 °F 77% 30.01 in 7.0 mi WNW 15.0 mph 25.3 mph N/A Rain Light Rain